Time;durP1;ratioP1;P1;durP2;ratioP2;P2;SDS_P1;SDS_P2;PMS_P1;PMS_P2;Temp;Humidity;BMP_temperature;BMP_pressure;BME280_temperature;BME280_humidity;BME280_pressure;Samples;Min_cycle;Max_cycle;Signal;HPM_P1;HPM_P2
2022/03/10 00:00:00;;;;;;;22.2;19.5;;;;;;;4.7;100.0;102080;;;;
2022/03/10 00:01:00;;;;;;;22.2;19.5;;;;;;;4.6;100.0;102070;;;;
2022/03/10 00:02:02;;;;;;;22.2;19.5;;;;;;;4.6;100.0;102070;;;;
2022/03/10 00:03:00;;;;;;;22.2;19.5;;;;;;;4.5;100.0;102080;;;;
2022/03/10 00:04:00;;;;;;;22.2;19.5;;;;;;;4.5;100.0;102080;;;;
2022/03/10 00:05:00;;;;;;;22.2;19.5;;;;;;;4.5;100.0;102080;;;;
2022/03/10 00:06:00;;;;;;;22.2;19.5;;;;;;;4.5;100.0;102080;;;;
2022/03/10 00:07:02;;;;;;;22.2;19.5;;;;;;;4.5;100.0;102080;;;;
2022/03/10 00:08:00;;;;;;;22.2;19.5;;;;;;;4.5;100.0;102080;;;;
2022/03/10 00:09:00;;;;;;;22.2;19.5;;;;;;;4.5;100.0;102080;;;;
2022/03/10 00:10:00;;;;;;;22.9;19.5;;;;;;;4.5;100.0;102080;;;;
2022/03/10 00:11:00;;;;;;;22.9;19.5;;;;;;;4.6;100.0;102080;;;;
2022/03/10 00:12:00;;;;;;;22.9;19.5;;;;;;;4.6;100.0;102080;;;;
2022/03/10 00:13:00;;;;;;;22.9;19.5;;;;;;;4.5;100.0;102080;;;;
2022/03/10 00:14:00;;;;;;;22.9;19.5;;;;;;;4.5;100.0;102080;;;;
2022/03/10 00:15:00;;;;;;;22.9;19.5;;;;;;;4.5;100.0;102090;;;;
2022/03/10 00:16:00;;;;;;;22.9;19.5;;;;;;;4.5;100.0;102090;;;;
2022/03/10 00:17:00;;;;;;;22.9;19.5;;;;;;;4.4;100.0;102090;;;;
2022/03/10 00:18:02;;;;;;;22.9;19.5;;;;;;;4.4;100.0;102090;;;;
2022/03/10 00:19:00;;;;;;;22.9;19.5;;;;;;;4.4;100.0;102090;;;;
2022/03/10 00:20:00;;;;;;;22.9;19.5;;;;;;;4.4;100.0;102090;;;;
2022/03/10 00:21:00;;;;;;;22.9;19.5;;;;;;;4.4;100.0;102090;;;;
2022/03/10 00:22:00;;;;;;;22.9;19.5;;;;;;;4.4;100.0;102090;;;;
2022/03/10 00:23:00;;;;;;;22.9;19.5;;;;;;;4.3;100.0;102090;;;;
2022/03/10 00:24:00;;;;;;;22.9;19.5;;;;;;;4.3;100.0;102090;;;;
2022/03/10 00:25:00;;;;;;;22.9;19.5;;;;;;;4.3;100.0;102090;;;;
2022/03/10 00:26:00;;;;;;;22.9;19.5;;;;;;;4.3;100.0;102090;;;;
2022/03/10 00:27:00;;;;;;;22.9;19.5;;;;;;;4.3;100.0;102080;;;;
2022/03/10 00:28:00;;;;;;;22.9;19.5;;;;;;;4.3;100.0;102080;;;;
2022/03/10 00:29:00;;;;;;;22.9;19.5;;;;;;;4.3;100.0;102080;;;;
2022/03/10 00:30:00;;;;;;;25.3;18.3;;;;;;;4.3;100.0;102080;;;;
2022/03/10 00:31:00;;;;;;;25.3;18.3;;;;;;;4.4;100.0;102080;;;;
2022/03/10 00:32:01;;;;;;;25.3;18.3;;;;;;;4.4;100.0;102080;;;;
2022/03/10 00:33:00;;;;;;;25.3;18.3;;;;;;;4.4;100.0;102080;;;;
2022/03/10 00:34:00;;;;;;;25.3;18.3;;;;;;;4.4;100.0;102080;;;;
2022/03/10 00:35:00;;;;;;;25.3;18.3;;;;;;;4.3;100.0;102080;;;;
2022/03/10 00:36:00;;;;;;;25.3;18.3;;;;;;;4.3;100.0;102080;;;;
2022/03/10 00:37:00;;;;;;;25.3;18.3;;;;;;;4.2;100.0;102080;;;;
2022/03/10 00:38:00;;;;;;;25.3;18.3;;;;;;;4.2;100.0;102080;;;;
2022/03/10 00:39:00;;;;;;;25.3;18.3;;;;;;;4.2;100.0;102080;;;;
2022/03/10 00:40:00;;;;;;;25.3;18.3;;;;;;;4.2;100.0;102080;;;;
2022/03/10 00:41:00;;;;;;;25.3;18.3;;;;;;;4.2;100.0;102080;;;;
2022/03/10 00:42:00;;;;;;;25.3;18.3;;;;;;;4.2;100.0;102080;;;;
2022/03/10 00:43:00;;;;;;;25.3;18.3;;;;;;;4.2;100.0;102090;;;;
2022/03/10 00:44:00;;;;;;;25.3;18.3;;;;;;;4.2;100.0;102090;;;;
2022/03/10 00:45:00;;;;;;;25.3;18.3;;;;;;;4.2;100.0;102090;;;;
2022/03/10 00:46:00;;;;;;;25.3;18.3;;;;;;;4.2;100.0;102090;;;;
2022/03/10 00:47:00;;;;;;;25.3;18.3;;;;;;;4.1;100.0;102090;;;;
2022/03/10 00:48:00;;;;;;;25.3;18.3;;;;;;;4.1;100.0;102090;;;;
2022/03/10 00:49:00;;;;;;;25.3;18.3;;;;;;;4.1;100.0;102090;;;;
2022/03/10 00:50:00;;;;;;;23.0;19.1;;;;;;;4.1;100.0;102090;;;;
2022/03/10 00:51:00;;;;;;;23.0;19.1;;;;;;;4.1;100.0;102090;;;;
2022/03/10 00:52:00;;;;;;;23.0;19.1;;;;;;;4.1;100.0;102090;;;;
2022/03/10 00:53:00;;;;;;;23.0;19.1;;;;;;;4.1;100.0;102090;;;;
2022/03/10 00:54:00;;;;;;;23.0;19.1;;;;;;;4.1;100.0;102090;;;;
2022/03/10 00:55:00;;;;;;;23.0;19.1;;;;;;;4.1;100.0;102090;;;;
2022/03/10 00:56:00;;;;;;;23.0;19.1;;;;;;;4.1;100.0;102090;;;;
2022/03/10 00:57:00;;;;;;;23.0;19.1;;;;;;;4.0;100.0;102090;;;;
2022/03/10 00:58:00;;;;;;;23.0;19.1;;;;;;;4.0;100.0;102090;;;;
2022/03/10 00:59:00;;;;;;;23.0;19.1;;;;;;;4.0;100.0;102090;;;;
2022/03/10 01:00:00;;;;;;;23.0;19.1;;;;;;;4.0;100.0;102090;;;;
2022/03/10 01:01:00;;;;;;;23.0;19.1;;;;;;;4.0;100.0;102100;;;;
2022/03/10 01:02:00;;;;;;;23.0;19.1;;;;;;;4.0;100.0;102100;;;;
2022/03/10 01:03:00;;;;;;;23.0;19.1;;;;;;;4.0;100.0;102090;;;;
2022/03/10 01:04:00;;;;;;;23.0;19.1;;;;;;;4.0;100.0;102090;;;;
2022/03/10 01:05:00;;;;;;;23.0;19.1;;;;;;;3.9;100.0;102090;;;;
2022/03/10 01:06:00;;;;;;;23.0;19.1;;;;;;;3.9;100.0;102090;;;;
2022/03/10 01:07:00;;;;;;;23.0;19.1;;;;;;;3.9;100.0;102090;;;;
2022/03/10 01:08:00;;;;;;;23.0;19.1;;;;;;;3.9;100.0;102090;;;;
2022/03/10 01:09:00;;;;;;;23.0;19.1;;;;;;;3.9;100.0;102090;;;;
2022/03/10 01:10:00;;;;;;;21.3;18.1;;;;;;;3.9;100.0;102090;;;;
2022/03/10 01:11:00;;;;;;;21.3;18.1;;;;;;;4.0;100.0;102090;;;;
2022/03/10 01:12:00;;;;;;;21.3;18.1;;;;;;;4.0;100.0;102090;;;;
2022/03/10 01:13:00;;;;;;;21.3;18.1;;;;;;;3.9;100.0;102090;;;;
2022/03/10 01:14:00;;;;;;;21.3;18.1;;;;;;;3.9;100.0;102090;;;;
2022/03/10 01:15:00;;;;;;;21.3;18.1;;;;;;;3.9;100.0;102090;;;;
2022/03/10 01:16:00;;;;;;;21.3;18.1;;;;;;;3.9;100.0;102090;;;;
2022/03/10 01:17:00;;;;;;;21.3;18.1;;;;;;;3.8;100.0;102080;;;;
2022/03/10 01:18:00;;;;;;;21.3;18.1;;;;;;;3.8;100.0;102080;;;;
2022/03/10 01:19:00;;;;;;;21.3;18.1;;;;;;;3.8;100.0;102080;;;;
2022/03/10 01:20:00;;;;;;;21.3;18.1;;;;;;;3.8;100.0;102080;;;;
2022/03/10 01:21:00;;;;;;;21.3;18.1;;;;;;;3.8;100.0;102090;;;;
2022/03/10 01:22:00;;;;;;;21.3;18.1;;;;;;;3.8;100.0;102090;;;;
2022/03/10 01:23:00;;;;;;;21.3;18.1;;;;;;;3.8;100.0;102090;;;;
2022/03/10 01:24:00;;;;;;;21.3;18.1;;;;;;;3.8;100.0;102090;;;;
2022/03/10 01:25:00;;;;;;;21.3;18.1;;;;;;;3.7;100.0;102090;;;;
2022/03/10 01:26:00;;;;;;;21.3;18.1;;;;;;;3.7;100.0;102090;;;;
2022/03/10 01:27:00;;;;;;;21.3;18.1;;;;;;;3.8;100.0;102090;;;;
2022/03/10 01:28:00;;;;;;;21.3;18.1;;;;;;;3.8;100.0;102090;;;;
2022/03/10 01:29:00;;;;;;;21.3;18.1;;;;;;;3.8;100.0;102090;;;;
2022/03/10 01:30:00;;;;;;;23.0;17.9;;;;;;;3.8;100.0;102090;;;;
2022/03/10 01:31:00;;;;;;;23.0;17.9;;;;;;;3.8;100.0;102090;;;;
2022/03/10 01:32:00;;;;;;;23.0;17.9;;;;;;;3.8;100.0;102090;;;;
2022/03/10 01:33:00;;;;;;;23.0;17.9;;;;;;;3.7;100.0;102090;;;;
2022/03/10 01:34:00;;;;;;;23.0;17.9;;;;;;;3.7;100.0;102090;;;;
2022/03/10 01:35:01;;;;;;;23.0;17.9;;;;;;;3.7;100.0;102090;;;;
2022/03/10 01:36:00;;;;;;;23.0;17.9;;;;;;;3.7;100.0;102090;;;;
2022/03/10 01:37:00;;;;;;;23.0;17.9;;;;;;;3.7;100.0;102090;;;;
2022/03/10 01:38:00;;;;;;;23.0;17.9;;;;;;;3.7;100.0;102090;;;;
2022/03/10 01:39:04;;;;;;;23.0;17.9;;;;;;;3.7;100.0;102090;;;;
2022/03/10 01:40:00;;;;;;;23.0;17.9;;;;;;;3.7;100.0;102090;;;;
2022/03/10 01:41:00;;;;;;;23.0;17.9;;;;;;;3.6;100.0;102090;;;;
2022/03/10 01:42:00;;;;;;;23.0;17.9;;;;;;;3.6;100.0;102090;;;;
2022/03/10 01:43:00;;;;;;;23.0;17.9;;;;;;;3.6;100.0;102090;;;;
2022/03/10 01:44:00;;;;;;;23.0;17.9;;;;;;;3.6;100.0;102090;;;;
2022/03/10 01:45:00;;;;;;;23.0;17.9;;;;;;;3.6;100.0;102080;;;;
2022/03/10 01:46:02;;;;;;;23.0;17.9;;;;;;;3.6;100.0;102080;;;;
2022/03/10 01:47:01;;;;;;;23.0;17.9;;;;;;;3.6;100.0;102080;;;;
2022/03/10 01:48:01;;;;;;;23.0;17.9;;;;;;;3.6;100.0;102080;;;;
2022/03/10 01:49:00;;;;;;;23.0;17.9;;;;;;;3.6;100.0;102090;;;;
2022/03/10 01:50:00;;;;;;;22.1;17.7;;;;;;;3.6;100.0;102090;;;;
2022/03/10 01:51:00;;;;;;;22.1;17.7;;;;;;;3.6;100.0;102090;;;;
2022/03/10 01:52:00;;;;;;;22.1;17.7;;;;;;;3.6;100.0;102090;;;;
2022/03/10 01:53:00;;;;;;;22.1;17.7;;;;;;;3.6;100.0;102090;;;;
2022/03/10 01:54:00;;;;;;;22.1;17.7;;;;;;;3.6;100.0;102090;;;;
2022/03/10 01:55:00;;;;;;;22.1;17.7;;;;;;;3.6;100.0;102080;;;;
2022/03/10 01:56:00;;;;;;;22.1;17.7;;;;;;;3.6;100.0;102080;;;;
2022/03/10 01:57:01;;;;;;;22.1;17.7;;;;;;;3.5;100.0;102080;;;;
2022/03/10 01:58:00;;;;;;;22.1;17.7;;;;;;;3.5;100.0;102080;;;;
2022/03/10 01:59:00;;;;;;;22.1;17.7;;;;;;;3.5;100.0;102080;;;;
2022/03/10 02:00:00;;;;;;;22.1;17.7;;;;;;;3.5;100.0;102080;;;;
2022/03/10 02:01:00;;;;;;;22.1;17.7;;;;;;;3.5;100.0;102080;;;;
2022/03/10 02:02:00;;;;;;;22.1;17.7;;;;;;;3.5;100.0;102080;;;;
2022/03/10 02:03:00;;;;;;;22.1;17.7;;;;;;;3.5;100.0;102080;;;;
2022/03/10 02:04:00;;;;;;;22.1;17.7;;;;;;;3.5;100.0;102080;;;;
2022/03/10 02:05:00;;;;;;;22.1;17.7;;;;;;;3.5;100.0;102080;;;;
2022/03/10 02:06:00;;;;;;;22.1;17.7;;;;;;;3.5;100.0;102080;;;;
2022/03/10 02:07:00;;;;;;;22.1;17.7;;;;;;;3.4;100.0;102090;;;;
2022/03/10 02:11:00;;;;;;;24.1;19.1;;;;;;;3.5;100.0;102090;;;;
2022/03/10 02:12:00;;;;;;;24.1;19.1;;;;;;;3.5;100.0;102090;;;;
2022/03/10 02:13:00;;;;;;;24.1;19.1;;;;;;;3.5;100.0;102090;;;;
2022/03/10 02:17:19;;;;;;;24.1;19.1;;;;;;;3.5;100.0;102090;;;;
2022/03/10 02:18:00;;;;;;;24.1;19.1;;;;;;;3.5;100.0;102080;;;;
2022/03/10 02:19:00;;;;;;;24.1;19.1;;;;;;;3.4;100.0;102080;;;;
2022/03/10 02:20:00;;;;;;;24.1;19.1;;;;;;;3.4;100.0;102080;;;;
2022/03/10 02:21:00;;;;;;;24.1;19.1;;;;;;;3.3;100.0;102080;;;;
2022/03/10 02:22:00;;;;;;;24.1;19.1;;;;;;;3.3;100.0;102080;;;;
2022/03/10 02:23:00;;;;;;;24.1;19.1;;;;;;;3.3;100.0;102070;;;;
2022/03/10 02:24:00;;;;;;;24.1;19.1;;;;;;;3.3;100.0;102070;;;;
2022/03/10 02:25:00;;;;;;;24.1;19.1;;;;;;;3.3;100.0;102080;;;;
2022/03/10 02:26:00;;;;;;;24.1;19.1;;;;;;;3.3;100.0;102080;;;;
2022/03/10 02:27:00;;;;;;;24.1;19.1;;;;;;;3.2;100.0;102070;;;;
2022/03/10 02:28:00;;;;;;;24.1;19.1;;;;;;;3.2;100.0;102070;;;;
2022/03/10 02:29:00;;;;;;;24.1;19.1;;;;;;;3.2;100.0;102080;;;;
2022/03/10 02:30:00;;;;;;;23.1;17.9;;;;;;;3.2;100.0;102080;;;;
2022/03/10 02:31:00;;;;;;;23.1;17.9;;;;;;;3.2;100.0;102080;;;;
2022/03/10 02:32:00;;;;;;;23.1;17.9;;;;;;;3.2;100.0;102080;;;;
2022/03/10 02:33:00;;;;;;;23.1;17.9;;;;;;;3.2;100.0;102080;;;;
2022/03/10 02:34:00;;;;;;;23.1;17.9;;;;;;;3.2;100.0;102080;;;;
2022/03/10 02:35:00;;;;;;;23.1;17.9;;;;;;;3.2;100.0;102080;;;;
2022/03/10 02:36:00;;;;;;;23.1;17.9;;;;;;;3.2;100.0;102080;;;;
2022/03/10 02:37:00;;;;;;;23.1;17.9;;;;;;;3.3;100.0;102080;;;;
2022/03/10 02:38:00;;;;;;;23.1;17.9;;;;;;;3.3;100.0;102080;;;;
2022/03/10 02:39:00;;;;;;;23.1;17.9;;;;;;;3.2;100.0;102070;;;;
2022/03/10 02:40:00;;;;;;;23.1;17.9;;;;;;;3.2;100.0;102070;;;;
2022/03/10 02:41:00;;;;;;;23.1;17.9;;;;;;;3.2;100.0;102070;;;;
2022/03/10 02:42:00;;;;;;;23.1;17.9;;;;;;;3.2;100.0;102070;;;;
2022/03/10 02:43:00;;;;;;;23.1;17.9;;;;;;;3.2;100.0;102070;;;;
2022/03/10 02:44:00;;;;;;;23.1;17.9;;;;;;;3.2;100.0;102070;;;;
2022/03/10 02:45:00;;;;;;;23.1;17.9;;;;;;;3.2;100.0;102070;;;;
2022/03/10 02:46:00;;;;;;;23.1;17.9;;;;;;;3.2;100.0;102070;;;;
2022/03/10 02:47:00;;;;;;;23.1;17.9;;;;;;;3.2;100.0;102070;;;;
2022/03/10 02:48:00;;;;;;;23.1;17.9;;;;;;;3.2;100.0;102070;;;;
2022/03/10 02:49:00;;;;;;;23.1;17.9;;;;;;;3.1;100.0;102070;;;;
2022/03/10 02:50:02;;;;;;;24.7;18.4;;;;;;;3.1;100.0;102070;;;;
2022/03/10 02:51:00;;;;;;;24.7;18.4;;;;;;;3.2;100.0;102070;;;;
2022/03/10 02:52:10;;;;;;;24.7;18.4;;;;;;;3.2;100.0;102070;;;;
2022/03/10 02:53:00;;;;;;;24.7;18.4;;;;;;;3.1;100.0;102070;;;;
2022/03/10 02:54:00;;;;;;;24.7;18.4;;;;;;;3.1;100.0;102070;;;;
2022/03/10 02:55:00;;;;;;;24.7;18.4;;;;;;;3.1;100.0;102070;;;;
2022/03/10 02:56:00;;;;;;;24.7;18.4;;;;;;;3.1;100.0;102070;;;;
2022/03/10 02:57:00;;;;;;;24.7;18.4;;;;;;;3.1;100.0;102080;;;;
2022/03/10 02:58:00;;;;;;;24.7;18.4;;;;;;;3.1;100.0;102080;;;;
2022/03/10 02:59:00;;;;;;;24.7;18.4;;;;;;;3.1;100.0;102080;;;;
2022/03/10 03:00:00;;;;;;;24.7;18.4;;;;;;;3.1;100.0;102080;;;;
2022/03/10 03:01:00;;;;;;;24.7;18.4;;;;;;;3.1;100.0;102080;;;;
2022/03/10 03:02:00;;;;;;;24.7;18.4;;;;;;;3.1;100.0;102080;;;;
2022/03/10 03:03:00;;;;;;;24.7;18.4;;;;;;;3.1;100.0;102080;;;;
2022/03/10 03:04:00;;;;;;;24.7;18.4;;;;;;;3.1;100.0;102080;;;;
2022/03/10 03:05:00;;;;;;;24.7;18.4;;;;;;;3.1;100.0;102080;;;;
2022/03/10 03:06:00;;;;;;;24.7;18.4;;;;;;;3.1;100.0;102080;;;;
2022/03/10 03:07:00;;;;;;;24.7;18.4;;;;;;;3.0;100.0;102090;;;;
2022/03/10 03:08:00;;;;;;;24.7;18.4;;;;;;;3.0;100.0;102090;;;;
2022/03/10 03:09:00;;;;;;;24.7;18.4;;;;;;;3.0;100.0;102090;;;;
2022/03/10 03:10:00;;;;;;;27.3;20.2;;;;;;;3.0;100.0;102090;;;;
2022/03/10 03:11:00;;;;;;;27.3;20.2;;;;;;;3.1;100.0;102090;;;;
2022/03/10 03:12:00;;;;;;;27.3;20.2;;;;;;;3.1;100.0;102090;;;;
2022/03/10 03:13:00;;;;;;;27.3;20.2;;;;;;;3.1;100.0;102090;;;;
2022/03/10 03:14:01;;;;;;;27.3;20.2;;;;;;;3.1;100.0;102090;;;;
2022/03/10 03:15:00;;;;;;;27.3;20.2;;;;;;;3.0;100.0;102090;;;;
2022/03/10 03:16:00;;;;;;;27.3;20.2;;;;;;;3.0;100.0;102090;;;;
2022/03/10 03:17:00;;;;;;;27.3;20.2;;;;;;;3.1;100.0;102080;;;;
2022/03/10 03:18:01;;;;;;;27.3;20.2;;;;;;;3.1;100.0;102080;;;;
2022/03/10 03:19:00;;;;;;;27.3;20.2;;;;;;;3.1;100.0;102080;;;;
2022/03/10 03:20:00;;;;;;;27.3;20.2;;;;;;;3.1;100.0;102080;;;;
2022/03/10 03:21:00;;;;;;;27.3;20.2;;;;;;;2.9;100.0;102080;;;;
2022/03/10 03:22:00;;;;;;;27.3;20.2;;;;;;;2.9;100.0;102080;;;;
2022/03/10 03:23:00;;;;;;;27.3;20.2;;;;;;;3.0;100.0;102080;;;;
2022/03/10 03:24:00;;;;;;;27.3;20.2;;;;;;;3.0;100.0;102080;;;;
2022/03/10 03:25:00;;;;;;;27.3;20.2;;;;;;;3.0;100.0;102090;;;;
2022/03/10 03:26:00;;;;;;;27.3;20.2;;;;;;;3.0;100.0;102090;;;;
2022/03/10 03:27:00;;;;;;;27.3;20.2;;;;;;;3.0;100.0;102080;;;;
2022/03/10 03:28:00;;;;;;;27.3;20.2;;;;;;;3.0;100.0;102080;;;;
2022/03/10 03:29:00;;;;;;;27.3;20.2;;;;;;;3.0;100.0;102090;;;;
2022/03/10 03:30:00;;;;;;;22.9;19.3;;;;;;;3.0;100.0;102090;;;;
2022/03/10 03:31:00;;;;;;;22.9;19.3;;;;;;;3.0;100.0;102090;;;;
2022/03/10 03:32:00;;;;;;;22.9;19.3;;;;;;;3.0;100.0;102090;;;;
2022/03/10 03:33:00;;;;;;;22.9;19.3;;;;;;;2.9;100.0;102090;;;;
2022/03/10 03:34:00;;;;;;;22.9;19.3;;;;;;;2.9;100.0;102090;;;;
2022/03/10 03:35:00;;;;;;;22.9;19.3;;;;;;;3.0;100.0;102090;;;;
2022/03/10 03:36:00;;;;;;;22.9;19.3;;;;;;;3.0;100.0;102090;;;;
2022/03/10 03:37:00;;;;;;;22.9;19.3;;;;;;;3.0;100.0;102090;;;;
2022/03/10 03:38:00;;;;;;;22.9;19.3;;;;;;;3.0;100.0;102090;;;;
2022/03/10 03:39:00;;;;;;;22.9;19.3;;;;;;;2.9;100.0;102090;;;;
2022/03/10 03:40:00;;;;;;;22.9;19.3;;;;;;;2.9;100.0;102090;;;;
2022/03/10 03:41:00;;;;;;;22.9;19.3;;;;;;;2.8;100.0;102100;;;;
2022/03/10 03:42:00;;;;;;;22.9;19.3;;;;;;;2.8;100.0;102100;;;;
2022/03/10 03:43:00;;;;;;;22.9;19.3;;;;;;;2.9;100.0;102100;;;;
2022/03/10 03:44:00;;;;;;;22.9;19.3;;;;;;;2.9;100.0;102100;;;;
2022/03/10 03:45:00;;;;;;;22.9;19.3;;;;;;;2.8;100.0;102100;;;;
2022/03/10 03:46:00;;;;;;;22.9;19.3;;;;;;;2.8;100.0;102100;;;;
2022/03/10 03:47:00;;;;;;;22.9;19.3;;;;;;;2.8;100.0;102100;;;;
2022/03/10 03:48:00;;;;;;;22.9;19.3;;;;;;;2.8;100.0;102100;;;;
2022/03/10 03:49:00;;;;;;;25.0;19.3;;;;;;;2.8;100.0;102100;;;;
2022/03/10 03:50:00;;;;;;;25.0;19.3;;;;;;;2.8;100.0;102100;;;;
2022/03/10 03:51:00;;;;;;;25.0;19.3;;;;;;;2.9;100.0;102100;;;;
2022/03/10 03:52:00;;;;;;;25.0;19.3;;;;;;;2.9;100.0;102100;;;;
2022/03/10 03:53:00;;;;;;;25.0;19.3;;;;;;;2.8;100.0;102100;;;;
2022/03/10 03:54:00;;;;;;;25.0;19.3;;;;;;;2.8;100.0;102100;;;;
2022/03/10 03:55:00;;;;;;;25.0;19.3;;;;;;;2.7;100.0;102110;;;;
2022/03/10 03:56:00;;;;;;;25.0;19.3;;;;;;;2.7;100.0;102110;;;;
2022/03/10 03:57:00;;;;;;;25.0;19.3;;;;;;;2.8;100.0;102100;;;;
2022/03/10 03:58:00;;;;;;;25.0;19.3;;;;;;;2.8;100.0;102100;;;;
2022/03/10 03:59:00;;;;;;;25.0;19.3;;;;;;;2.8;100.0;102110;;;;
2022/03/10 04:00:01;;;;;;;25.0;19.3;;;;;;;2.8;100.0;102110;;;;
2022/03/10 04:01:00;;;;;;;25.0;19.3;;;;;;;2.8;100.0;102110;;;;
2022/03/10 04:02:00;;;;;;;25.0;19.3;;;;;;;2.8;100.0;102110;;;;
2022/03/10 04:03:00;;;;;;;25.0;19.3;;;;;;;2.7;100.0;102110;;;;
2022/03/10 04:04:00;;;;;;;25.0;19.3;;;;;;;2.7;100.0;102110;;;;
2022/03/10 04:05:00;;;;;;;25.0;19.3;;;;;;;2.7;100.0;102110;;;;
2022/03/10 04:06:00;;;;;;;25.0;19.3;;;;;;;2.7;100.0;102110;;;;
2022/03/10 04:07:00;;;;;;;25.0;19.3;;;;;;;2.7;100.0;102110;;;;
2022/03/10 04:08:00;;;;;;;25.0;19.3;;;;;;;2.7;100.0;102110;;;;
2022/03/10 04:09:00;;;;;;;22.8;18.9;;;;;;;2.6;100.0;102110;;;;
2022/03/10 04:10:00;;;;;;;22.8;18.9;;;;;;;2.6;100.0;102110;;;;
2022/03/10 04:11:00;;;;;;;22.8;18.9;;;;;;;2.7;100.0;102120;;;;
2022/03/10 04:12:00;;;;;;;22.8;18.9;;;;;;;2.7;100.0;102120;;;;
2022/03/10 04:13:00;;;;;;;22.8;18.9;;;;;;;2.7;100.0;102120;;;;
2022/03/10 04:14:00;;;;;;;22.8;18.9;;;;;;;2.7;100.0;102120;;;;
2022/03/10 04:15:00;;;;;;;22.8;18.9;;;;;;;2.6;100.0;102120;;;;
2022/03/10 04:16:00;;;;;;;22.8;18.9;;;;;;;2.6;100.0;102120;;;;
2022/03/10 04:17:00;;;;;;;22.8;18.9;;;;;;;2.6;100.0;102120;;;;
2022/03/10 04:18:00;;;;;;;22.8;18.9;;;;;;;2.6;100.0;102120;;;;
2022/03/10 04:19:00;;;;;;;22.8;18.9;;;;;;;2.5;100.0;102120;;;;
2022/03/10 04:20:00;;;;;;;22.8;18.9;;;;;;;2.5;100.0;102120;;;;
2022/03/10 04:21:00;;;;;;;22.8;18.9;;;;;;;2.5;100.0;102120;;;;
2022/03/10 04:22:00;;;;;;;22.8;18.9;;;;;;;2.5;100.0;102120;;;;
2022/03/10 04:23:00;;;;;;;22.8;18.9;;;;;;;2.5;100.0;102120;;;;
2022/03/10 04:24:00;;;;;;;22.8;18.9;;;;;;;2.5;100.0;102120;;;;
2022/03/10 04:25:00;;;;;;;22.8;18.9;;;;;;;2.5;100.0;102120;;;;
2022/03/10 04:26:00;;;;;;;22.8;18.9;;;;;;;2.5;100.0;102120;;;;
2022/03/10 04:27:00;;;;;;;22.8;18.9;;;;;;;2.5;100.0;102120;;;;
2022/03/10 04:28:00;;;;;;;22.8;18.9;;;;;;;2.5;100.0;102120;;;;
2022/03/10 04:29:00;;;;;;;24.7;20.0;;;;;;;2.5;100.0;102120;;;;
2022/03/10 04:30:00;;;;;;;24.7;20.0;;;;;;;2.5;100.0;102120;;;;
2022/03/10 04:31:00;;;;;;;24.7;20.0;;;;;;;2.5;100.0;102120;;;;
2022/03/10 04:32:00;;;;;;;24.7;20.0;;;;;;;2.5;100.0;102120;;;;
2022/03/10 04:33:00;;;;;;;24.7;20.0;;;;;;;2.4;100.0;102120;;;;
2022/03/10 04:34:00;;;;;;;24.7;20.0;;;;;;;2.4;100.0;102120;;;;
2022/03/10 04:35:00;;;;;;;24.7;20.0;;;;;;;2.4;100.0;102120;;;;
2022/03/10 04:36:00;;;;;;;24.7;20.0;;;;;;;2.4;100.0;102120;;;;
2022/03/10 04:37:00;;;;;;;24.7;20.0;;;;;;;2.4;100.0;102120;;;;
2022/03/10 04:38:00;;;;;;;24.7;20.0;;;;;;;2.4;100.0;102120;;;;
2022/03/10 04:39:00;;;;;;;24.7;20.0;;;;;;;2.3;100.0;102120;;;;
2022/03/10 04:40:00;;;;;;;24.7;20.0;;;;;;;2.3;100.0;102120;;;;
2022/03/10 04:41:00;;;;;;;24.7;20.0;;;;;;;2.3;100.0;102120;;;;
2022/03/10 04:42:00;;;;;;;24.7;20.0;;;;;;;2.3;100.0;102120;;;;
2022/03/10 04:43:00;;;;;;;24.7;20.0;;;;;;;2.2;100.0;102120;;;;
2022/03/10 04:44:00;;;;;;;24.7;20.0;;;;;;;2.2;100.0;102120;;;;
2022/03/10 04:45:00;;;;;;;24.7;20.0;;;;;;;2.3;100.0;102120;;;;
2022/03/10 04:46:00;;;;;;;24.7;20.0;;;;;;;2.3;100.0;102120;;;;
2022/03/10 04:47:00;;;;;;;24.7;20.0;;;;;;;2.2;100.0;102120;;;;
2022/03/10 04:48:02;;;;;;;24.7;20.0;;;;;;;2.2;100.0;102120;;;;
2022/03/10 04:49:00;;;;;;;23.7;19.9;;;;;;;2.2;100.0;102120;;;;
2022/03/10 04:50:00;;;;;;;23.7;19.9;;;;;;;2.2;100.0;102120;;;;
2022/03/10 04:51:00;;;;;;;23.7;19.9;;;;;;;2.2;100.0;102130;;;;
2022/03/10 04:52:01;;;;;;;23.7;19.9;;;;;;;2.2;100.0;102130;;;;
2022/03/10 04:53:01;;;;;;;23.7;19.9;;;;;;;2.2;100.0;102130;;;;
2022/03/10 04:54:01;;;;;;;23.7;19.9;;;;;;;2.2;100.0;102130;;;;
2022/03/10 04:55:01;;;;;;;23.7;19.9;;;;;;;2.1;100.0;102130;;;;
2022/03/10 04:56:02;;;;;;;23.7;19.9;;;;;;;2.1;100.0;102130;;;;
2022/03/10 04:57:02;;;;;;;23.7;19.9;;;;;;;2.2;100.0;102130;;;;
2022/03/10 04:58:04;;;;;;;23.7;19.9;;;;;;;2.2;100.0;102130;;;;
2022/03/10 04:59:03;;;;;;;23.7;19.9;;;;;;;2.2;100.0;102120;;;;
2022/03/10 05:00:00;;;;;;;23.7;19.9;;;;;;;2.2;100.0;102120;;;;
2022/03/10 05:01:00;;;;;;;23.7;19.9;;;;;;;2.1;100.0;102130;;;;
2022/03/10 05:02:00;;;;;;;23.7;19.9;;;;;;;2.1;100.0;102130;;;;
2022/03/10 05:03:00;;;;;;;23.7;19.9;;;;;;;2.1;100.0;102120;;;;
2022/03/10 05:04:00;;;;;;;23.7;19.9;;;;;;;2.1;100.0;102120;;;;
2022/03/10 05:05:00;;;;;;;23.7;19.9;;;;;;;2.0;100.0;102120;;;;
2022/03/10 05:06:00;;;;;;;23.7;19.9;;;;;;;2.0;100.0;102120;;;;
2022/03/10 05:07:00;;;;;;;23.7;19.9;;;;;;;2.0;100.0;102120;;;;
2022/03/10 05:08:00;;;;;;;23.7;19.9;;;;;;;2.0;100.0;102120;;;;
2022/03/10 05:09:00;;;;;;;25.5;20.4;;;;;;;2.0;100.0;102120;;;;
2022/03/10 05:10:00;;;;;;;25.5;20.4;;;;;;;2.0;100.0;102120;;;;
2022/03/10 05:11:00;;;;;;;25.5;20.4;;;;;;;2.0;100.0;102120;;;;
2022/03/10 05:12:00;;;;;;;25.5;20.4;;;;;;;2.0;100.0;102120;;;;
2022/03/10 05:13:01;;;;;;;25.5;20.4;;;;;;;2.0;100.0;102120;;;;
2022/03/10 05:14:00;;;;;;;25.5;20.4;;;;;;;2.0;100.0;102120;;;;
2022/03/10 05:15:01;;;;;;;25.5;20.4;;;;;;;1.9;100.0;102120;;;;
2022/03/10 05:16:00;;;;;;;25.5;20.4;;;;;;;1.9;100.0;102120;;;;
2022/03/10 05:17:00;;;;;;;25.5;20.4;;;;;;;1.9;100.0;102120;;;;
2022/03/10 05:18:00;;;;;;;25.5;20.4;;;;;;;1.9;100.0;102120;;;;
2022/03/10 05:19:00;;;;;;;25.5;20.4;;;;;;;1.8;100.0;102120;;;;
2022/03/10 05:20:00;;;;;;;25.5;20.4;;;;;;;1.8;100.0;102120;;;;
2022/03/10 05:21:00;;;;;;;25.5;20.4;;;;;;;1.9;100.0;102120;;;;
2022/03/10 05:22:00;;;;;;;25.5;20.4;;;;;;;1.9;100.0;102120;;;;
2022/03/10 05:23:04;;;;;;;25.5;20.4;;;;;;;1.9;100.0;102120;;;;
2022/03/10 05:24:00;;;;;;;25.5;20.4;;;;;;;1.9;100.0;102120;;;;
2022/03/10 05:25:00;;;;;;;25.5;20.4;;;;;;;1.9;100.0;102120;;;;
2022/03/10 05:26:00;;;;;;;25.5;20.4;;;;;;;1.9;100.0;102120;;;;
2022/03/10 05:27:00;;;;;;;25.5;20.4;;;;;;;1.8;100.0;102120;;;;
2022/03/10 05:28:00;;;;;;;25.5;20.4;;;;;;;1.8;100.0;102120;;;;
2022/03/10 05:29:00;;;;;;;23.6;20.5;;;;;;;1.9;100.0;102120;;;;
2022/03/10 05:30:00;;;;;;;23.6;20.5;;;;;;;1.9;100.0;102120;;;;
2022/03/10 05:31:00;;;;;;;23.6;20.5;;;;;;;1.9;100.0;102130;;;;
2022/03/10 05:32:00;;;;;;;23.6;20.5;;;;;;;1.9;100.0;102130;;;;
2022/03/10 05:33:00;;;;;;;23.6;20.5;;;;;;;1.9;100.0;102130;;;;
2022/03/10 05:34:00;;;;;;;23.6;20.5;;;;;;;1.9;100.0;102130;;;;
2022/03/10 05:35:00;;;;;;;23.6;20.5;;;;;;;1.8;100.0;102130;;;;
2022/03/10 05:36:00;;;;;;;23.6;20.5;;;;;;;1.8;100.0;102130;;;;
2022/03/10 05:37:00;;;;;;;23.6;20.5;;;;;;;1.7;100.0;102130;;;;
2022/03/10 05:38:00;;;;;;;23.6;20.5;;;;;;;1.7;100.0;102130;;;;
2022/03/10 05:39:00;;;;;;;23.6;20.5;;;;;;;1.8;100.0;102130;;;;
2022/03/10 05:40:00;;;;;;;23.6;20.5;;;;;;;1.8;100.0;102130;;;;
2022/03/10 05:41:00;;;;;;;23.6;20.5;;;;;;;1.8;100.0;102130;;;;
2022/03/10 05:42:00;;;;;;;23.6;20.5;;;;;;;1.8;100.0;102130;;;;
2022/03/10 05:43:00;;;;;;;23.6;20.5;;;;;;;1.8;100.0;102130;;;;
2022/03/10 05:44:00;;;;;;;23.6;20.5;;;;;;;1.8;100.0;102130;;;;
2022/03/10 05:45:00;;;;;;;23.6;20.5;;;;;;;1.8;100.0;102130;;;;
2022/03/10 05:46:02;;;;;;;23.6;20.5;;;;;;;1.8;100.0;102130;;;;
2022/03/10 05:47:00;;;;;;;23.6;20.5;;;;;;;1.7;100.0;102130;;;;
2022/03/10 05:48:00;;;;;;;23.6;20.5;;;;;;;1.7;100.0;102130;;;;
2022/03/10 05:49:00;;;;;;;26.2;20.4;;;;;;;1.8;100.0;102130;;;;
2022/03/10 05:50:00;;;;;;;26.2;20.4;;;;;;;1.8;100.0;102130;;;;
2022/03/10 05:51:00;;;;;;;26.2;20.4;;;;;;;1.7;100.0;102130;;;;
2022/03/10 05:52:00;;;;;;;26.2;20.4;;;;;;;1.7;100.0;102130;;;;
2022/03/10 05:53:00;;;;;;;26.2;20.4;;;;;;;1.8;100.0;102130;;;;
2022/03/10 05:54:00;;;;;;;26.2;20.4;;;;;;;1.8;100.0;102130;;;;
2022/03/10 05:55:00;;;;;;;26.2;20.4;;;;;;;1.7;100.0;102120;;;;
2022/03/10 05:56:00;;;;;;;26.2;20.4;;;;;;;1.7;100.0;102120;;;;
2022/03/10 05:57:00;;;;;;;26.2;20.4;;;;;;;1.8;100.0;102130;;;;
2022/03/10 05:58:00;;;;;;;26.2;20.4;;;;;;;1.8;100.0;102130;;;;
2022/03/10 05:59:00;;;;;;;26.2;20.4;;;;;;;1.8;100.0;102130;;;;
2022/03/10 06:00:00;;;;;;;26.2;20.4;;;;;;;1.8;100.0;102130;;;;
2022/03/10 06:01:00;;;;;;;26.2;20.4;;;;;;;1.9;100.0;102130;;;;
2022/03/10 06:02:00;;;;;;;26.2;20.4;;;;;;;1.9;100.0;102130;;;;
2022/03/10 06:03:00;;;;;;;26.2;20.4;;;;;;;1.9;100.0;102120;;;;
2022/03/10 06:04:00;;;;;;;26.2;20.4;;;;;;;1.9;100.0;102120;;;;
2022/03/10 06:05:00;;;;;;;26.2;20.4;;;;;;;1.8;100.0;102130;;;;
2022/03/10 06:06:00;;;;;;;26.2;20.4;;;;;;;1.8;100.0;102130;;;;
2022/03/10 06:07:00;;;;;;;26.2;20.4;;;;;;;1.9;100.0;102120;;;;
2022/03/10 06:08:00;;;;;;;26.2;20.4;;;;;;;1.9;100.0;102120;;;;
2022/03/10 06:09:00;;;;;;;24.3;19.9;;;;;;;1.9;100.0;102120;;;;
2022/03/10 06:10:00;;;;;;;24.3;19.9;;;;;;;1.9;100.0;102120;;;;
2022/03/10 06:11:04;;;;;;;24.3;19.9;;;;;;;1.8;100.0;102130;;;;
2022/03/10 06:12:01;;;;;;;24.3;19.9;;;;;;;1.8;100.0;102130;;;;
2022/03/10 06:13:00;;;;;;;24.3;19.9;;;;;;;1.8;100.0;102130;;;;
2022/03/10 06:14:00;;;;;;;24.3;19.9;;;;;;;1.8;100.0;102130;;;;
2022/03/10 06:15:00;;;;;;;24.3;19.9;;;;;;;1.8;100.0;102130;;;;
2022/03/10 06:16:00;;;;;;;24.3;19.9;;;;;;;1.8;100.0;102130;;;;
2022/03/10 06:17:00;;;;;;;24.3;19.9;;;;;;;1.9;100.0;102130;;;;
2022/03/10 06:18:00;;;;;;;24.3;19.9;;;;;;;1.9;100.0;102130;;;;
2022/03/10 06:19:00;;;;;;;24.3;19.9;;;;;;;1.7;100.0;102130;;;;
2022/03/10 06:20:06;;;;;;;24.3;19.9;;;;;;;1.7;100.0;102130;;;;
2022/03/10 06:21:00;;;;;;;24.3;19.9;;;;;;;1.8;100.0;102130;;;;
2022/03/10 06:22:00;;;;;;;24.3;19.9;;;;;;;1.8;100.0;102130;;;;